sensor_id;sensor_type;location;lat;lon;timestamp;P1;durP1;ratioP1;P2;durP2;ratioP2
20559;SDS011;10438;51.454;6.718;2022-10-17T00:01:45;15.70;;;7.63;;
20559;SDS011;10438;51.454;6.718;2022-10-17T00:04:10;14.02;;;7.85;;
20559;SDS011;10438;51.454;6.718;2022-10-17T00:06:36;13.63;;;7.63;;
20559;SDS011;10438;51.454;6.718;2022-10-17T00:09:02;13.25;;;6.82;;
20559;SDS011;10438;51.454;6.718;2022-10-17T00:11:27;15.27;;;7.28;;
20559;SDS011;10438;51.454;6.718;2022-10-17T00:13:54;10.85;;;7.25;;
20559;SDS011;10438;51.454;6.718;2022-10-17T00:16:27;12.32;;;6.68;;
20559;SDS011;10438;51.454;6.718;2022-10-17T00:18:54;14.63;;;7.72;;
20559;SDS011;10438;51.454;6.718;2022-10-17T00:21:21;11.45;;;6.75;;
20559;SDS011;10438;51.454;6.718;2022-10-17T00:23:47;13.02;;;6.88;;
20559;SDS011;10438;51.454;6.718;2022-10-17T00:26:14;10.98;;;6.30;;
20559;SDS011;10438;51.454;6.718;2022-10-17T00:28:40;13.38;;;7.03;;
20559;SDS011;10438;51.454;6.718;2022-10-17T00:31:06;10.15;;;6.45;;
20559;SDS011;10438;51.454;6.718;2022-10-17T00:33:32;14.45;;;6.35;;
20559;SDS011;10438;51.454;6.718;2022-10-17T00:36:10;10.82;;;6.07;;
20559;SDS011;10438;51.454;6.718;2022-10-17T00:38:37;13.48;;;6.13;;
20559;SDS011;10438;51.454;6.718;2022-10-17T00:41:04;11.38;;;6.53;;
20559;SDS011;10438;51.454;6.718;2022-10-17T00:46:17;11.60;;;6.28;;
20559;SDS011;10438;51.454;6.718;2022-10-17T00:48:43;13.40;;;7.00;;
20559;SDS011;10438;51.454;6.718;2022-10-17T00:51:09;12.73;;;6.45;;
20559;SDS011;10438;51.454;6.718;2022-10-17T00:53:35;13.43;;;5.80;;
20559;SDS011;10438;51.454;6.718;2022-10-17T00:56:03;10.23;;;5.47;;
20559;SDS011;10438;51.454;6.718;2022-10-17T00:58:29;11.40;;;6.45;;
20559;SDS011;10438;51.454;6.718;2022-10-17T01:00:54;7.50;;;5.55;;
20559;SDS011;10438;51.454;6.718;2022-10-17T01:03:20;8.90;;;5.93;;
20559;SDS011;10438;51.454;6.718;2022-10-17T01:05:46;13.25;;;6.05;;
20559;SDS011;10438;51.454;6.718;2022-10-17T01:08:11;11.45;;;5.95;;
20559;SDS011;10438;51.454;6.718;2022-10-17T01:10:40;16.10;;;5.95;;
20559;SDS011;10438;51.454;6.718;2022-10-17T01:13:14;10.48;;;5.50;;
20559;SDS011;10438;51.454;6.718;2022-10-17T01:32:21;9.07;;;5.28;;
20559;SDS011;10438;51.454;6.718;2022-10-17T01:35:09;9.07;;;5.18;;
20559;SDS011;10438;51.454;6.718;2022-10-17T01:38:13;9.18;;;5.18;;
20559;SDS011;10438;51.454;6.718;2022-10-17T01:40:48;8.82;;;5.25;;
20559;SDS011;10438;51.454;6.718;2022-10-17T01:43:25;10.73;;;5.70;;
20559;SDS011;10438;51.454;6.718;2022-10-17T01:45:58;14.93;;;5.38;;
20559;SDS011;10438;51.454;6.718;2022-10-17T01:48:31;9.68;;;5.22;;
20559;SDS011;10438;51.454;6.718;2022-10-17T01:51:05;8.20;;;5.32;;
20559;SDS011;10438;51.454;6.718;2022-10-17T01:53:35;8.13;;;5.38;;
20559;SDS011;10438;51.454;6.718;2022-10-17T01:56:05;9.90;;;4.70;;
20559;SDS011;10438;51.454;6.718;2022-10-17T01:58:35;10.18;;;5.07;;
20559;SDS011;10438;51.454;6.718;2022-10-17T02:01:05;9.52;;;5.57;;
20559;SDS011;10438;51.454;6.718;2022-10-17T02:03:33;12.35;;;5.20;;
20559;SDS011;10438;51.454;6.718;2022-10-17T02:05:59;9.25;;;4.82;;
20559;SDS011;10438;51.454;6.718;2022-10-17T02:08:26;8.38;;;5.45;;
20559;SDS011;10438;51.454;6.718;2022-10-17T02:11:04;9.32;;;5.20;;
20559;SDS011;10438;51.454;6.718;2022-10-17T02:13:43;8.43;;;4.95;;
20559;SDS011;10438;51.454;6.718;2022-10-17T02:16:28;9.80;;;5.28;;
20559;SDS011;10438;51.454;6.718;2022-10-17T02:20:16;9.60;;;5.07;;
20559;SDS011;10438;51.454;6.718;2022-10-17T02:25:12;9.73;;;5.72;;
20559;SDS011;10438;51.454;6.718;2022-10-17T02:30:28;16.45;;;5.47;;
20559;SDS011;10438;51.454;6.718;2022-10-17T02:33:09;7.95;;;4.93;;
20559;SDS011;10438;51.454;6.718;2022-10-17T02:35:36;10.20;;;4.85;;
20559;SDS011;10438;51.454;6.718;2022-10-17T02:38:06;9.18;;;4.93;;
20559;SDS011;10438;51.454;6.718;2022-10-17T02:40:33;10.85;;;5.18;;
20559;SDS011;10438;51.454;6.718;2022-10-17T02:43:01;10.25;;;5.00;;
20559;SDS011;10438;51.454;6.718;2022-10-17T02:45:27;7.72;;;4.85;;
20559;SDS011;10438;51.454;6.718;2022-10-17T02:48:11;7.47;;;4.72;;
20559;SDS011;10438;51.454;6.718;2022-10-17T02:53:24;9.90;;;4.60;;
20559;SDS011;10438;51.454;6.718;2022-10-17T02:55:57;7.63;;;4.78;;
20559;SDS011;10438;51.454;6.718;2022-10-17T02:58:29;8.82;;;4.82;;
20559;SDS011;10438;51.454;6.718;2022-10-17T03:00:57;11.85;;;5.32;;
20559;SDS011;10438;51.454;6.718;2022-10-17T03:03:27;12.40;;;4.60;;
20559;SDS011;10438;51.454;6.718;2022-10-17T03:05:55;7.45;;;4.05;;
20559;SDS011;10438;51.454;6.718;2022-10-17T03:08:21;10.25;;;4.82;;
20559;SDS011;10438;51.454;6.718;2022-10-17T03:10:47;8.88;;;4.75;;
20559;SDS011;10438;51.454;6.718;2022-10-17T03:13:12;6.78;;;4.57;;
20559;SDS011;10438;51.454;6.718;2022-10-17T03:15:38;7.38;;;4.50;;
20559;SDS011;10438;51.454;6.718;2022-10-17T03:18:04;9.77;;;5.00;;
20559;SDS011;10438;51.454;6.718;2022-10-17T03:20:29;8.80;;;4.38;;
20559;SDS011;10438;51.454;6.718;2022-10-17T03:22:55;7.68;;;4.45;;
20559;SDS011;10438;51.454;6.718;2022-10-17T03:25:20;7.00;;;4.63;;
20559;SDS011;10438;51.454;6.718;2022-10-17T03:27:46;10.05;;;4.47;;
20559;SDS011;10438;51.454;6.718;2022-10-17T03:30:11;10.35;;;4.15;;
20559;SDS011;10438;51.454;6.718;2022-10-17T03:32:37;7.57;;;4.57;;
20559;SDS011;10438;51.454;6.718;2022-10-17T03:35:02;10.75;;;4.85;;
20559;SDS011;10438;51.454;6.718;2022-10-17T03:37:28;16.83;;;4.78;;
20559;SDS011;10438;51.454;6.718;2022-10-17T03:39:53;11.00;;;4.15;;
20559;SDS011;10438;51.454;6.718;2022-10-17T03:42:19;9.65;;;4.20;;
20559;SDS011;10438;51.454;6.718;2022-10-17T03:44:45;6.95;;;3.97;;
20559;SDS011;10438;51.454;6.718;2022-10-17T03:47:10;10.70;;;4.65;;
20559;SDS011;10438;51.454;6.718;2022-10-17T03:49:36;7.65;;;4.03;;
20559;SDS011;10438;51.454;6.718;2022-10-17T03:52:01;6.80;;;4.22;;
20559;SDS011;10438;51.454;6.718;2022-10-17T03:54:27;11.75;;;4.70;;
20559;SDS011;10438;51.454;6.718;2022-10-17T03:56:53;9.77;;;4.35;;
20559;SDS011;10438;51.454;6.718;2022-10-17T03:59:18;9.88;;;4.20;;
20559;SDS011;10438;51.454;6.718;2022-10-17T04:01:44;10.27;;;3.92;;
20559;SDS011;10438;51.454;6.718;2022-10-17T04:04:09;6.53;;;3.85;;
20559;SDS011;10438;51.454;6.718;2022-10-17T04:06:35;9.80;;;3.95;;
20559;SDS011;10438;51.454;6.718;2022-10-17T04:09:02;9.63;;;4.10;;
20559;SDS011;10438;51.454;6.718;2022-10-17T04:11:28;10.05;;;4.10;;
20559;SDS011;10438;51.454;6.718;2022-10-17T04:13:54;10.95;;;4.35;;
20559;SDS011;10438;51.454;6.718;2022-10-17T04:16:21;6.75;;;4.43;;
20559;SDS011;10438;51.454;6.718;2022-10-17T04:18:50;6.32;;;3.55;;
20559;SDS011;10438;51.454;6.718;2022-10-17T04:21:21;8.85;;;4.30;;
20559;SDS011;10438;51.454;6.718;2022-10-17T04:23:51;9.90;;;4.53;;
20559;SDS011;10438;51.454;6.718;2022-10-17T04:26:21;9.55;;;4.20;;
20559;SDS011;10438;51.454;6.718;2022-10-17T04:28:47;10.63;;;4.53;;
20559;SDS011;10438;51.454;6.718;2022-10-17T04:31:13;8.73;;;3.80;;
20559;SDS011;10438;51.454;6.718;2022-10-17T04:33:39;8.77;;;4.30;;
20559;SDS011;10438;51.454;6.718;2022-10-17T04:36:06;12.05;;;3.78;;
20559;SDS011;10438;51.454;6.718;2022-10-17T04:38:35;8.70;;;4.00;;
20559;SDS011;10438;51.454;6.718;2022-10-17T04:41:01;7.85;;;3.80;;
20559;SDS011;10438;51.454;6.718;2022-10-17T04:43:29;8.27;;;4.30;;
20559;SDS011;10438;51.454;6.718;2022-10-17T04:45:56;7.32;;;4.25;;
20559;SDS011;10438;51.454;6.718;2022-10-17T04:48:22;9.18;;;3.85;;
20559;SDS011;10438;51.454;6.718;2022-10-17T04:50:54;9.35;;;4.40;;
20559;SDS011;10438;51.454;6.718;2022-10-17T04:53:22;9.40;;;4.25;;
20559;SDS011;10438;51.454;6.718;2022-10-17T04:55:47;8.75;;;3.97;;
20559;SDS011;10438;51.454;6.718;2022-10-17T04:58:13;9.38;;;4.13;;
20559;SDS011;10438;51.454;6.718;2022-10-17T05:00:39;9.50;;;4.10;;
20559;SDS011;10438;51.454;6.718;2022-10-17T05:03:05;8.40;;;3.78;;
20559;SDS011;10438;51.454;6.718;2022-10-17T05:05:30;6.57;;;3.38;;
20559;SDS011;10438;51.454;6.718;2022-10-17T05:07:56;13.25;;;4.20;;
20559;SDS011;10438;51.454;6.718;2022-10-17T05:10:21;8.48;;;3.92;;
20559;SDS011;10438;51.454;6.718;2022-10-17T05:12:47;8.20;;;3.50;;
20559;SDS011;10438;51.454;6.718;2022-10-17T05:15:13;5.43;;;3.50;;
20559;SDS011;10438;51.454;6.718;2022-10-17T05:17:39;8.90;;;3.72;;
20559;SDS011;10438;51.454;6.718;2022-10-17T05:20:05;11.35;;;3.63;;
20559;SDS011;10438;51.454;6.718;2022-10-17T05:22:31;10.55;;;3.72;;
20559;SDS011;10438;51.454;6.718;2022-10-17T05:24:56;8.27;;;3.60;;
20559;SDS011;10438;51.454;6.718;2022-10-17T05:27:22;10.30;;;4.70;;
20559;SDS011;10438;51.454;6.718;2022-10-17T05:29:47;6.20;;;3.47;;
20559;SDS011;10438;51.454;6.718;2022-10-17T05:32:14;9.75;;;3.90;;
20559;SDS011;10438;51.454;6.718;2022-10-17T05:34:40;11.32;;;4.80;;
20559;SDS011;10438;51.454;6.718;2022-10-17T05:37:05;7.57;;;3.83;;
20559;SDS011;10438;51.454;6.718;2022-10-17T05:39:31;11.80;;;4.70;;
20559;SDS011;10438;51.454;6.718;2022-10-17T05:41:56;6.55;;;3.75;;
20559;SDS011;10438;51.454;6.718;2022-10-17T05:44:22;10.02;;;4.07;;
20559;SDS011;10438;51.454;6.718;2022-10-17T05:46:50;9.70;;;4.28;;
20559;SDS011;10438;51.454;6.718;2022-10-17T05:49:16;10.15;;;3.80;;
20559;SDS011;10438;51.454;6.718;2022-10-17T05:51:41;6.28;;;3.58;;
20559;SDS011;10438;51.454;6.718;2022-10-17T05:54:07;8.38;;;3.63;;
20559;SDS011;10438;51.454;6.718;2022-10-17T05:56:33;12.10;;;3.72;;
20559;SDS011;10438;51.454;6.718;2022-10-17T05:58:59;8.13;;;4.03;;
20559;SDS011;10438;51.454;6.718;2022-10-17T06:01:25;8.27;;;3.78;;
20559;SDS011;10438;51.454;6.718;2022-10-17T06:03:51;9.88;;;3.78;;
20559;SDS011;10438;51.454;6.718;2022-10-17T06:06:16;8.20;;;4.07;;
20559;SDS011;10438;51.454;6.718;2022-10-17T06:08:42;8.43;;;3.80;;
20559;SDS011;10438;51.454;6.718;2022-10-17T06:11:08;10.75;;;4.32;;
20559;SDS011;10438;51.454;6.718;2022-10-17T06:13:35;9.57;;;4.15;;
20559;SDS011;10438;51.454;6.718;2022-10-17T06:16:01;7.63;;;3.80;;
20559;SDS011;10438;51.454;6.718;2022-10-17T06:18:27;11.38;;;3.92;;
20559;SDS011;10438;51.454;6.718;2022-10-17T06:20:53;10.48;;;4.10;;
20559;SDS011;10438;51.454;6.718;2022-10-17T06:23:18;12.05;;;3.60;;
20559;SDS011;10438;51.454;6.718;2022-10-17T06:25:44;11.20;;;3.97;;
20559;SDS011;10438;51.454;6.718;2022-10-17T06:28:10;9.43;;;4.10;;
20559;SDS011;10438;51.454;6.718;2022-10-17T06:30:37;8.43;;;4.20;;
20559;SDS011;10438;51.454;6.718;2022-10-17T06:33:04;9.25;;;4.20;;
20559;SDS011;10438;51.454;6.718;2022-10-17T06:35:29;10.00;;;4.00;;
20559;SDS011;10438;51.454;6.718;2022-10-17T06:37:55;9.02;;;3.70;;
20559;SDS011;10438;51.454;6.718;2022-10-17T06:40:21;8.15;;;4.00;;
20559;SDS011;10438;51.454;6.718;2022-10-17T06:42:46;15.25;;;4.03;;
20559;SDS011;10438;51.454;6.718;2022-10-17T06:45:12;11.68;;;3.83;;
20559;SDS011;10438;51.454;6.718;2022-10-17T06:47:38;9.65;;;3.53;;
20559;SDS011;10438;51.454;6.718;2022-10-17T06:50:04;9.82;;;3.50;;
20559;SDS011;10438;51.454;6.718;2022-10-17T06:52:29;8.73;;;3.25;;
20559;SDS011;10438;51.454;6.718;2022-10-17T06:54:55;12.65;;;3.50;;
20559;SDS011;10438;51.454;6.718;2022-10-17T06:57:21;11.82;;;3.80;;
20559;SDS011;10438;51.454;6.718;2022-10-17T06:59:46;12.75;;;4.22;;
20559;SDS011;10438;51.454;6.718;2022-10-17T07:02:12;6.45;;;4.03;;
20559;SDS011;10438;51.454;6.718;2022-10-17T07:04:37;8.80;;;3.53;;
20559;SDS011;10438;51.454;6.718;2022-10-17T07:07:03;6.60;;;3.53;;
20559;SDS011;10438;51.454;6.718;2022-10-17T07:09:29;5.35;;;3.35;;
20559;SDS011;10438;51.454;6.718;2022-10-17T07:11:55;6.00;;;3.42;;
20559;SDS011;10438;51.454;6.718;2022-10-17T07:14:21;10.00;;;3.75;;
20559;SDS011;10438;51.454;6.718;2022-10-17T07:16:47;7.38;;;3.58;;
20559;SDS011;10438;51.454;6.718;2022-10-17T07:19:12;10.23;;;3.88;;
20559;SDS011;10438;51.454;6.718;2022-10-17T07:21:38;7.55;;;3.60;;
20559;SDS011;10438;51.454;6.718;2022-10-17T07:24:03;9.60;;;3.70;;
20559;SDS011;10438;51.454;6.718;2022-10-17T07:26:31;11.85;;;3.45;;
20559;SDS011;10438;51.454;6.718;2022-10-17T07:28:56;7.55;;;3.40;;
20559;SDS011;10438;51.454;6.718;2022-10-17T07:31:22;6.28;;;3.28;;
20559;SDS011;10438;51.454;6.718;2022-10-17T07:33:48;15.60;;;3.58;;
20559;SDS011;10438;51.454;6.718;2022-10-17T07:36:14;8.35;;;3.42;;
20559;SDS011;10438;51.454;6.718;2022-10-17T07:38:40;11.23;;;3.83;;
20559;SDS011;10438;51.454;6.718;2022-10-17T07:41:06;7.80;;;3.17;;
20559;SDS011;10438;51.454;6.718;2022-10-17T07:43:33;6.60;;;3.47;;
20559;SDS011;10438;51.454;6.718;2022-10-17T07:46:00;7.22;;;3.30;;
20559;SDS011;10438;51.454;6.718;2022-10-17T07:48:28;7.10;;;3.22;;
20559;SDS011;10438;51.454;6.718;2022-10-17T07:50:54;14.65;;;3.60;;
20559;SDS011;10438;51.454;6.718;2022-10-17T07:53:19;7.43;;;3.22;;
20559;SDS011;10438;51.454;6.718;2022-10-17T07:55:45;8.23;;;3.38;;
20559;SDS011;10438;51.454;6.718;2022-10-17T07:58:12;8.73;;;3.53;;
20559;SDS011;10438;51.454;6.718;2022-10-17T08:00:38;5.03;;;2.95;;
20559;SDS011;10438;51.454;6.718;2022-10-17T08:03:04;9.23;;;3.78;;
20559;SDS011;10438;51.454;6.718;2022-10-17T08:05:30;10.02;;;3.30;;
20559;SDS011;10438;51.454;6.718;2022-10-17T08:07:57;9.10;;;3.38;;
20559;SDS011;10438;51.454;6.718;2022-10-17T08:10:22;12.15;;;3.47;;
20559;SDS011;10438;51.454;6.718;2022-10-17T08:12:53;10.60;;;3.58;;
20559;SDS011;10438;51.454;6.718;2022-10-17T08:15:20;11.55;;;3.08;;
20559;SDS011;10438;51.454;6.718;2022-10-17T08:17:45;7.40;;;3.20;;
20559;SDS011;10438;51.454;6.718;2022-10-17T08:20:11;9.85;;;2.88;;
20559;SDS011;10438;51.454;6.718;2022-10-17T08:22:36;8.52;;;3.20;;
20559;SDS011;10438;51.454;6.718;2022-10-17T08:25:02;9.57;;;3.22;;
20559;SDS011;10438;51.454;6.718;2022-10-17T08:27:28;11.40;;;3.08;;
20559;SDS011;10438;51.454;6.718;2022-10-17T08:29:54;7.72;;;2.70;;
20559;SDS011;10438;51.454;6.718;2022-10-17T08:32:20;9.70;;;2.65;;
20559;SDS011;10438;51.454;6.718;2022-10-17T08:34:47;9.25;;;3.03;;
20559;SDS011;10438;51.454;6.718;2022-10-17T08:37:13;8.18;;;2.88;;
20559;SDS011;10438;51.454;6.718;2022-10-17T08:39:42;7.25;;;2.67;;
20559;SDS011;10438;51.454;6.718;2022-10-17T08:45:01;6.53;;;3.10;;
20559;SDS011;10438;51.454;6.718;2022-10-17T08:47:40;13.45;;;2.97;;
20559;SDS011;10438;51.454;6.718;2022-10-17T08:50:28;7.95;;;3.08;;
20559;SDS011;10438;51.454;6.718;2022-10-17T08:52:56;8.27;;;3.20;;
20559;SDS011;10438;51.454;6.718;2022-10-17T08:55:31;12.70;;;2.70;;
20559;SDS011;10438;51.454;6.718;2022-10-17T08:58:03;5.32;;;2.67;;
20559;SDS011;10438;51.454;6.718;2022-10-17T09:00:37;9.85;;;2.97;;
20559;SDS011;10438;51.454;6.718;2022-10-17T09:05:56;7.30;;;2.97;;
20559;SDS011;10438;51.454;6.718;2022-10-17T09:08:53;9.82;;;2.90;;
20559;SDS011;10438;51.454;6.718;2022-10-17T09:14:19;7.85;;;3.15;;
20559;SDS011;10438;51.454;6.718;2022-10-17T09:19:31;9.52;;;3.10;;
20559;SDS011;10438;51.454;6.718;2022-10-17T09:22:05;8.70;;;2.90;;
20559;SDS011;10438;51.454;6.718;2022-10-17T09:24:44;8.68;;;3.08;;
20559;SDS011;10438;51.454;6.718;2022-10-17T09:27:19;11.00;;;3.05;;
20559;SDS011;10438;51.454;6.718;2022-10-17T09:30:01;7.43;;;3.45;;
20559;SDS011;10438;51.454;6.718;2022-10-17T09:32:54;6.20;;;3.28;;
20559;SDS011;10438;51.454;6.718;2022-10-17T09:35:20;9.63;;;3.58;;
20559;SDS011;10438;51.454;6.718;2022-10-17T09:37:47;11.25;;;3.20;;
20559;SDS011;10438;51.454;6.718;2022-10-17T09:40:30;10.25;;;3.40;;
20559;SDS011;10438;51.454;6.718;2022-10-17T09:42:58;16.50;;;3.25;;
20559;SDS011;10438;51.454;6.718;2022-10-17T09:45:26;12.35;;;3.50;;
20559;SDS011;10438;51.454;6.718;2022-10-17T09:50:35;7.50;;;3.70;;
20559;SDS011;10438;51.454;6.718;2022-10-17T09:55:50;10.65;;;4.07;;
20559;SDS011;10438;51.454;6.718;2022-10-17T09:58:22;8.80;;;3.45;;
20559;SDS011;10438;51.454;6.718;2022-10-17T10:00:48;8.80;;;3.38;;
20559;SDS011;10438;51.454;6.718;2022-10-17T10:05:56;9.98;;;3.60;;
20559;SDS011;10438;51.454;6.718;2022-10-17T10:08:24;13.20;;;3.90;;
20559;SDS011;10438;51.454;6.718;2022-10-17T10:10:57;11.93;;;3.67;;
20559;SDS011;10438;51.454;6.718;2022-10-17T10:13:28;11.95;;;4.53;;
20559;SDS011;10438;51.454;6.718;2022-10-17T10:16:11;9.77;;;3.75;;
20559;SDS011;10438;51.454;6.718;2022-10-17T10:18:45;18.38;;;4.20;;
20559;SDS011;10438;51.454;6.718;2022-10-17T10:21:16;9.98;;;4.25;;
20559;SDS011;10438;51.454;6.718;2022-10-17T10:26:37;11.90;;;3.45;;
20559;SDS011;10438;51.454;6.718;2022-10-17T10:32:33;9.70;;;4.53;;
20559;SDS011;10438;51.454;6.718;2022-10-17T10:37:34;12.57;;;4.38;;
20559;SDS011;10438;51.454;6.718;2022-10-17T10:40:04;11.20;;;4.53;;
20559;SDS011;10438;51.454;6.718;2022-10-17T10:42:39;20.17;;;5.35;;
20559;SDS011;10438;51.454;6.718;2022-10-17T10:47:54;16.10;;;4.97;;
20559;SDS011;10438;51.454;6.718;2022-10-17T10:53:33;11.07;;;3.83;;
20559;SDS011;10438;51.454;6.718;2022-10-17T10:56:21;10.77;;;3.63;;
20559;SDS011;10438;51.454;6.718;2022-10-17T11:04:30;10.15;;;3.60;;
20559;SDS011;10438;51.454;6.718;2022-10-17T11:07:16;8.57;;;3.55;;
20559;SDS011;10438;51.454;6.718;2022-10-17T11:09:54;11.35;;;3.80;;
20559;SDS011;10438;51.454;6.718;2022-10-17T11:12:50;11.15;;;5.15;;
20559;SDS011;10438;51.454;6.718;2022-10-17T11:15:34;13.30;;;4.25;;
20559;SDS011;10438;51.454;6.718;2022-10-17T11:18:15;11.88;;;4.93;;
20559;SDS011;10438;51.454;6.718;2022-10-17T11:20:51;10.93;;;4.63;;
20559;SDS011;10438;51.454;6.718;2022-10-17T11:23:35;13.20;;;4.75;;
20559;SDS011;10438;51.454;6.718;2022-10-17T11:26:10;9.95;;;4.75;;
20559;SDS011;10438;51.454;6.718;2022-10-17T11:28:41;10.73;;;5.32;;
20559;SDS011;10438;51.454;6.718;2022-10-17T11:31:08;9.55;;;5.13;;
20559;SDS011;10438;51.454;6.718;2022-10-17T11:33:48;10.38;;;4.80;;
20559;SDS011;10438;51.454;6.718;2022-10-17T11:36:15;10.77;;;5.43;;
20559;SDS011;10438;51.454;6.718;2022-10-17T11:38:45;13.23;;;4.85;;
20559;SDS011;10438;51.454;6.718;2022-10-17T11:41:30;9.15;;;4.75;;
20559;SDS011;10438;51.454;6.718;2022-10-17T11:47:02;14.88;;;5.03;;
20559;SDS011;10438;51.454;6.718;2022-10-17T11:49:44;13.05;;;5.35;;
20559;SDS011;10438;51.454;6.718;2022-10-17T11:55:03;10.65;;;4.65;;
20559;SDS011;10438;51.454;6.718;2022-10-17T11:57:47;11.98;;;4.25;;
20559;SDS011;10438;51.454;6.718;2022-10-17T12:03:11;14.27;;;3.97;;
20559;SDS011;10438;51.454;6.718;2022-10-17T12:08:35;11.32;;;4.22;;
20559;SDS011;10438;51.454;6.718;2022-10-17T12:11:25;14.60;;;4.63;;
20559;SDS011;10438;51.454;6.718;2022-10-17T12:14:33;16.67;;;4.78;;
20559;SDS011;10438;51.454;6.718;2022-10-17T12:20:09;9.85;;;5.10;;
20559;SDS011;10438;51.454;6.718;2022-10-17T12:22:47;14.45;;;5.95;;
20559;SDS011;10438;51.454;6.718;2022-10-17T12:25:25;11.80;;;5.78;;
20559;SDS011;10438;51.454;6.718;2022-10-17T12:31:09;14.32;;;4.70;;
20559;SDS011;10438;51.454;6.718;2022-10-17T12:38:48;17.98;;;4.75;;
20559;SDS011;10438;51.454;6.718;2022-10-17T12:41:16;10.00;;;3.90;;
20559;SDS011;10438;51.454;6.718;2022-10-17T12:46:45;12.80;;;4.32;;
20559;SDS011;10438;51.454;6.718;2022-10-17T13:03:33;10.68;;;4.70;;
20559;SDS011;10438;51.454;6.718;2022-10-17T13:06:11;13.52;;;4.95;;
20559;SDS011;10438;51.454;6.718;2022-10-17T13:08:43;13.98;;;4.88;;
20559;SDS011;10438;51.454;6.718;2022-10-17T13:11:13;12.27;;;5.20;;
20559;SDS011;10438;51.454;6.718;2022-10-17T13:13:46;10.98;;;5.55;;
20559;SDS011;10438;51.454;6.718;2022-10-17T13:19:12;13.15;;;4.90;;
20559;SDS011;10438;51.454;6.718;2022-10-17T13:21:48;12.10;;;5.13;;
20559;SDS011;10438;51.454;6.718;2022-10-17T13:24:30;13.77;;;4.68;;
20559;SDS011;10438;51.454;6.718;2022-10-17T13:26:58;13.45;;;4.90;;
20559;SDS011;10438;51.454;6.718;2022-10-17T13:29:24;12.90;;;4.70;;
20559;SDS011;10438;51.454;6.718;2022-10-17T13:31:53;8.32;;;3.95;;
20559;SDS011;10438;51.454;6.718;2022-10-17T13:34:22;9.07;;;3.45;;
20559;SDS011;10438;51.454;6.718;2022-10-17T13:36:53;11.27;;;3.88;;
20559;SDS011;10438;51.454;6.718;2022-10-17T13:39:21;10.55;;;3.42;;
20559;SDS011;10438;51.454;6.718;2022-10-17T13:41:48;8.82;;;3.40;;
20559;SDS011;10438;51.454;6.718;2022-10-17T13:44:19;13.52;;;3.90;;
20559;SDS011;10438;51.454;6.718;2022-10-17T13:46:48;9.77;;;3.33;;
20559;SDS011;10438;51.454;6.718;2022-10-17T13:51:56;11.65;;;3.35;;
20559;SDS011;10438;51.454;6.718;2022-10-17T13:54:33;8.55;;;3.83;;
20559;SDS011;10438;51.454;6.718;2022-10-17T13:57:16;9.60;;;3.63;;
20559;SDS011;10438;51.454;6.718;2022-10-17T13:59:48;8.85;;;3.50;;
20559;SDS011;10438;51.454;6.718;2022-10-17T14:02:19;8.73;;;3.03;;
20559;SDS011;10438;51.454;6.718;2022-10-17T14:05:07;11.90;;;3.50;;
20559;SDS011;10438;51.454;6.718;2022-10-17T14:07:39;9.88;;;2.88;;
20559;SDS011;10438;51.454;6.718;2022-10-17T14:10:26;10.98;;;3.05;;
20559;SDS011;10438;51.454;6.718;2022-10-17T14:12:56;11.35;;;3.38;;
20559;SDS011;10438;51.454;6.718;2022-10-17T14:15:30;9.32;;;3.15;;
20559;SDS011;10438;51.454;6.718;2022-10-17T14:18:02;8.60;;;3.42;;
20559;SDS011;10438;51.454;6.718;2022-10-17T14:20:29;8.52;;;3.05;;
20559;SDS011;10438;51.454;6.718;2022-10-17T14:22:56;6.07;;;2.70;;
20559;SDS011;10438;51.454;6.718;2022-10-17T14:25:36;14.75;;;3.05;;
20559;SDS011;10438;51.454;6.718;2022-10-17T14:30:43;12.65;;;3.60;;
20559;SDS011;10438;51.454;6.718;2022-10-17T14:33:14;8.73;;;3.10;;
20559;SDS011;10438;51.454;6.718;2022-10-17T14:35:53;9.13;;;3.70;;
20559;SDS011;10438;51.454;6.718;2022-10-17T14:38:21;10.68;;;3.20;;
20559;SDS011;10438;51.454;6.718;2022-10-17T14:40:48;8.63;;;2.80;;
20559;SDS011;10438;51.454;6.718;2022-10-17T14:43:18;8.45;;;3.05;;
20559;SDS011;10438;51.454;6.718;2022-10-17T14:45:46;11.35;;;3.58;;
20559;SDS011;10438;51.454;6.718;2022-10-17T14:48:13;11.38;;;3.13;;
20559;SDS011;10438;51.454;6.718;2022-10-17T14:53:36;8.77;;;3.10;;
20559;SDS011;10438;51.454;6.718;2022-10-17T14:56:04;10.55;;;3.38;;
20559;SDS011;10438;51.454;6.718;2022-10-17T14:58:45;8.63;;;3.15;;
20559;SDS011;10438;51.454;6.718;2022-10-17T15:01:11;7.15;;;3.13;;
20559;SDS011;10438;51.454;6.718;2022-10-17T15:03:36;9.50;;;3.47;;
20559;SDS011;10438;51.454;6.718;2022-10-17T15:08:58;7.68;;;3.45;;
20559;SDS011;10438;51.454;6.718;2022-10-17T15:11:23;7.30;;;3.15;;
20559;SDS011;10438;51.454;6.718;2022-10-17T15:13:49;11.02;;;4.10;;
20559;SDS011;10438;51.454;6.718;2022-10-17T15:16:19;9.80;;;3.70;;
20559;SDS011;10438;51.454;6.718;2022-10-17T15:18:46;9.85;;;3.65;;
20559;SDS011;10438;51.454;6.718;2022-10-17T15:21:13;8.15;;;3.63;;
20559;SDS011;10438;51.454;6.718;2022-10-17T15:23:40;10.25;;;4.30;;
20559;SDS011;10438;51.454;6.718;2022-10-17T15:28:44;9.93;;;4.65;;
20559;SDS011;10438;51.454;6.718;2022-10-17T15:31:12;13.55;;;4.80;;
20559;SDS011;10438;51.454;6.718;2022-10-17T15:33:38;17.65;;;4.90;;
20559;SDS011;10438;51.454;6.718;2022-10-17T15:36:04;13.77;;;5.05;;
20559;SDS011;10438;51.454;6.718;2022-10-17T15:38:40;10.45;;;4.68;;
20559;SDS011;10438;51.454;6.718;2022-10-17T15:41:07;15.65;;;4.72;;
20559;SDS011;10438;51.454;6.718;2022-10-17T15:43:34;9.88;;;4.40;;
20559;SDS011;10438;51.454;6.718;2022-10-17T15:46:00;12.23;;;4.70;;
20559;SDS011;10438;51.454;6.718;2022-10-17T15:48:27;13.55;;;5.03;;
20559;SDS011;10438;51.454;6.718;2022-10-17T15:50:54;15.57;;;4.88;;
20559;SDS011;10438;51.454;6.718;2022-10-17T15:53:20;11.05;;;5.10;;
20559;SDS011;10438;51.454;6.718;2022-10-17T15:55:46;13.75;;;5.93;;
20559;SDS011;10438;51.454;6.718;2022-10-17T15:58:14;10.80;;;4.53;;
20559;SDS011;10438;51.454;6.718;2022-10-17T16:00:41;14.82;;;5.53;;
20559;SDS011;10438;51.454;6.718;2022-10-17T16:03:07;13.35;;;5.57;;
20559;SDS011;10438;51.454;6.718;2022-10-17T16:05:32;11.93;;;5.40;;
20559;SDS011;10438;51.454;6.718;2022-10-17T16:07:58;13.63;;;5.28;;
20559;SDS011;10438;51.454;6.718;2022-10-17T16:10:24;11.65;;;5.07;;
20559;SDS011;10438;51.454;6.718;2022-10-17T16:12:50;10.85;;;5.15;;
20559;SDS011;10438;51.454;6.718;2022-10-17T16:15:17;11.70;;;5.50;;
20559;SDS011;10438;51.454;6.718;2022-10-17T16:17:46;11.93;;;5.03;;
20559;SDS011;10438;51.454;6.718;2022-10-17T16:20:12;9.30;;;4.60;;
20559;SDS011;10438;51.454;6.718;2022-10-17T16:22:37;9.45;;;4.35;;
20559;SDS011;10438;51.454;6.718;2022-10-17T16:25:06;9.82;;;5.00;;
20559;SDS011;10438;51.454;6.718;2022-10-17T16:27:43;8.07;;;4.55;;
20559;SDS011;10438;51.454;6.718;2022-10-17T16:30:10;14.68;;;6.63;;
20559;SDS011;10438;51.454;6.718;2022-10-17T16:32:36;11.65;;;4.85;;
20559;SDS011;10438;51.454;6.718;2022-10-17T16:35:02;11.55;;;5.30;;
20559;SDS011;10438;51.454;6.718;2022-10-17T16:37:28;8.68;;;5.00;;
20559;SDS011;10438;51.454;6.718;2022-10-17T16:39:54;12.27;;;5.10;;
20559;SDS011;10438;51.454;6.718;2022-10-17T16:42:20;12.80;;;5.35;;
20559;SDS011;10438;51.454;6.718;2022-10-17T16:44:46;10.15;;;5.43;;
20559;SDS011;10438;51.454;6.718;2022-10-17T16:47:12;10.40;;;4.97;;
20559;SDS011;10438;51.454;6.718;2022-10-17T16:49:38;9.65;;;5.40;;
20559;SDS011;10438;51.454;6.718;2022-10-17T16:52:04;17.85;;;5.97;;
20559;SDS011;10438;51.454;6.718;2022-10-17T16:54:29;12.23;;;5.70;;
20559;SDS011;10438;51.454;6.718;2022-10-17T16:56:55;16.80;;;5.65;;
20559;SDS011;10438;51.454;6.718;2022-10-17T16:59:23;11.88;;;5.50;;